RYR76GA LFBH-EGSS
Flight info
| Callsign | RYR76GA |
|---|---|
| Flight time | 1h 2m |
| Altitude | 34000 |
| Route | LUSON A25 TIRAV UT501 USODA UM184 DIKRO UM185 ADLOG M185 TELTU |
| Aircraft | B738/M-SDE3FGILRWY/SB1 |
Departure
| Time | 2026-05-05 20:01 |
|---|---|
| Airport | La Rochelle Île de Ré Airport (LFBH) |
Arrival
| Time | 2026-05-05 21:03 |
|---|---|
| Airport | London Stansted Airport (EGSS) |
| Time | Latitude | Longitude | Altitude | Speed | Heading |
|---|---|---|---|---|---|
| 2026-05-05 19:22 | 46.17655 | -1.19429 | 74 ft | 0 kts | 319° |
| 2026-05-05 19:56 | 46.17661 | -1.19436 | 76 ft | 2 kts | 319° |
| 2026-05-05 19:56 | 46.17679 | -1.19458 | 69 ft | 5 kts | 319° |
| 2026-05-05 19:56 | 46.17709 | -1.19496 | 76 ft | 7 kts | 329° |
| 2026-05-05 19:56 | 46.17760 | -1.19500 | 74 ft | 8 kts | 3° |
| 2026-05-05 19:57 | 46.17825 | -1.19496 | 69 ft | 10 kts | 2° |
| 2026-05-05 19:57 | 46.17874 | -1.19491 | 69 ft | 11 kts | 4° |
| 2026-05-05 19:57 | 46.17911 | -1.19380 | 69 ft | 11 kts | 96° |
| 2026-05-05 19:57 | 46.17912 | -1.19253 | 72 ft | 14 kts | 94° |
| 2026-05-05 19:58 | 46.17907 | -1.19104 | 72 ft | 15 kts | 92° |
| 2026-05-05 19:58 | 46.17902 | -1.18951 | 73 ft | 15 kts | 92° |
| 2026-05-05 19:58 | 46.17896 | -1.18784 | 65 ft | 19 kts | 92° |
| 2026-05-05 19:58 | 46.17891 | -1.18548 | 71 ft | 29 kts | 92° |
| 2026-05-05 19:59 | 46.17882 | -1.18295 | 67 ft | 14 kts | 98° |
| 2026-05-05 19:59 | 46.17867 | -1.18198 | 73 ft | 7 kts | 37° |
| 2026-05-05 19:59 | 46.17883 | -1.18240 | 75 ft | 6 kts | 269° |
| 2026-05-05 19:59 | 46.17883 | -1.18247 | 75 ft | 0 kts | 271° |
| 2026-05-05 20:00 | 46.17890 | -1.18493 | 73 ft | 63 kts | 273° |
| 2026-05-05 20:00 | 46.17918 | -1.19496 | 76 ft | 133 kts | 273° |
| 2026-05-05 20:01 | 46.17960 | -1.21037 | 424 ft | 163 kts | 271° |
| 2026-05-05 20:01 | 46.18081 | -1.22676 | 1303 ft | 167 kts | 290° |
| 2026-05-05 20:01 | 46.18593 | -1.24195 | 2093 ft | 175 kts | 308° |
| 2026-05-05 20:01 | 46.19710 | -1.25146 | 2389 ft | 204 kts | 346° |
| 2026-05-05 20:02 | 46.21178 | -1.25603 | 2704 ft | 225 kts | 347° |
| 2026-05-05 20:02 | 46.22744 | -1.26100 | 3169 ft | 241 kts | 346° |
| 2026-05-05 20:02 | 46.24435 | -1.26641 | 3729 ft | 252 kts | 346° |
| 2026-05-05 20:02 | 46.26140 | -1.27191 | 4789 ft | 251 kts | 345° |
| 2026-05-05 20:03 | 46.27847 | -1.27746 | 5635 ft | 258 kts | 346° |
| 2026-05-05 20:03 | 46.29611 | -1.28323 | 6540 ft | 262 kts | 346° |
| 2026-05-05 20:03 | 46.31401 | -1.28911 | 7421 ft | 265 kts | 346° |
| 2026-05-05 20:03 | 46.33220 | -1.29511 | 8254 ft | 270 kts | 345° |
| 2026-05-05 20:04 | 46.35067 | -1.30122 | 9121 ft | 275 kts | 346° |
| 2026-05-05 20:04 | 46.36939 | -1.30743 | 9970 ft | 279 kts | 346° |
| 2026-05-05 20:04 | 46.38876 | -1.31387 | 10567 ft | 291 kts | 345° |
| 2026-05-05 20:04 | 46.40870 | -1.32051 | 11316 ft | 295 kts | 346° |
| 2026-05-05 20:05 | 46.42883 | -1.32721 | 12129 ft | 300 kts | 346° |
| 2026-05-05 20:05 | 46.44938 | -1.33405 | 12847 ft | 307 kts | 346° |
| 2026-05-05 20:05 | 46.47042 | -1.34105 | 13602 ft | 311 kts | 346° |
| 2026-05-05 20:05 | 46.49153 | -1.34807 | 14394 ft | 312 kts | 347° |
| 2026-05-05 20:06 | 46.51276 | -1.35558 | 15157 ft | 315 kts | 345° |
| 2026-05-05 20:06 | 46.53398 | -1.36421 | 15881 ft | 318 kts | 344° |
| 2026-05-05 20:06 | 46.55549 | -1.37311 | 16603 ft | 322 kts | 345° |
| 2026-05-05 20:06 | 46.57695 | -1.38189 | 17463 ft | 321 kts | 344° |
| 2026-05-05 20:07 | 46.59873 | -1.38913 | 18247 ft | 323 kts | 353° |
| 2026-05-05 20:07 | 46.62144 | -1.39034 | 18819 ft | 328 kts | 2° |
| 2026-05-05 20:07 | 46.64444 | -1.38872 | 19443 ft | 331 kts | 4° |
| 2026-05-05 20:07 | 46.66756 | -1.38682 | 20102 ft | 334 kts | 4° |
| 2026-05-05 20:08 | 46.69100 | -1.38490 | 20617 ft | 341 kts | 4° |
| 2026-05-05 20:08 | 46.71443 | -1.38307 | 21288 ft | 341 kts | 4° |
| 2026-05-05 20:08 | 46.73824 | -1.38129 | 21943 ft | 344 kts | 4° |
| 2026-05-05 20:08 | 46.76240 | -1.37954 | 22470 ft | 350 kts | 4° |
| 2026-05-05 20:09 | 46.78685 | -1.37780 | 23051 ft | 353 kts | 4° |
| 2026-05-05 20:09 | 46.81149 | -1.37609 | 23634 ft | 356 kts | 5° |
| 2026-05-05 20:09 | 46.83632 | -1.37436 | 24127 ft | 359 kts | 5° |
| 2026-05-05 20:09 | 46.86134 | -1.37262 | 24615 ft | 361 kts | 5° |
| 2026-05-05 20:10 | 46.88655 | -1.37088 | 25093 ft | 364 kts | 5° |
| 2026-05-05 20:10 | 46.91192 | -1.36912 | 25568 ft | 367 kts | 6° |
| 2026-05-05 20:10 | 46.93751 | -1.36733 | 26041 ft | 370 kts | 6° |
| 2026-05-05 20:10 | 46.96337 | -1.36551 | 26497 ft | 372 kts | 6° |
| 2026-05-05 20:11 | 46.98932 | -1.36513 | 27023 ft | 374 kts | 2° |
| 2026-05-05 20:11 | 47.01541 | -1.36646 | 27479 ft | 378 kts | 1° |
| 2026-05-05 20:11 | 47.04181 | -1.36828 | 27868 ft | 382 kts | 1° |
| 2026-05-05 20:11 | 47.06849 | -1.37024 | 28264 ft | 385 kts | 1° |
| 2026-05-05 20:12 | 47.09540 | -1.37217 | 28680 ft | 388 kts | 1° |
| 2026-05-05 20:12 | 47.12245 | -1.37404 | 29096 ft | 391 kts | 2° |
| 2026-05-05 20:12 | 47.14942 | -1.37585 | 29484 ft | 394 kts | 2° |
| 2026-05-05 20:12 | 47.17692 | -1.37764 | 29861 ft | 397 kts | 2° |
| 2026-05-05 20:13 | 47.20457 | -1.37941 | 30217 ft | 399 kts | 1° |
| 2026-05-05 20:13 | 47.23241 | -1.38120 | 30512 ft | 402 kts | 1° |
| 2026-05-05 20:13 | 47.26053 | -1.38299 | 30799 ft | 405 kts | 1° |
| 2026-05-05 20:13 | 47.28884 | -1.38479 | 31087 ft | 408 kts | 1° |
| 2026-05-05 20:14 | 47.31732 | -1.38660 | 31377 ft | 411 kts | 1° |
| 2026-05-05 20:14 | 47.34595 | -1.38843 | 31662 ft | 414 kts | 0° |
| 2026-05-05 20:14 | 47.37483 | -1.39028 | 31934 ft | 416 kts | 0° |
| 2026-05-05 20:14 | 47.40388 | -1.39214 | 32205 ft | 419 kts | 0° |
| 2026-05-05 20:15 | 47.43305 | -1.39401 | 32470 ft | 421 kts | 360° |
| 2026-05-05 20:15 | 47.46241 | -1.39590 | 32719 ft | 424 kts | 360° |
| 2026-05-05 20:15 | 47.49197 | -1.39780 | 32971 ft | 426 kts | 360° |
| 2026-05-05 20:15 | 47.52175 | -1.39972 | 33242 ft | 428 kts | 359° |
| 2026-05-05 20:16 | 47.55157 | -1.40165 | 33519 ft | 430 kts | 359° |
| 2026-05-05 20:16 | 47.58155 | -1.40358 | 33748 ft | 433 kts | 359° |
| 2026-05-05 20:16 | 47.61165 | -1.40554 | 33901 ft | 433 kts | 359° |
| 2026-05-05 20:17 | 47.67183 | -1.40947 | 33899 ft | 430 kts | 359° |
| 2026-05-05 20:17 | 47.73129 | -1.41339 | 33912 ft | 427 kts | 359° |
| 2026-05-05 20:18 | 47.79061 | -1.41783 | 33910 ft | 427 kts | 359° |
| 2026-05-05 20:18 | 47.84955 | -1.42236 | 33921 ft | 426 kts | 359° |
| 2026-05-05 20:19 | 47.90877 | -1.42689 | 33930 ft | 426 kts | 359° |
| 2026-05-05 20:19 | 47.95844 | -1.43070 | 33932 ft | 427 kts | 359° |
| 2026-05-05 20:20 | 48.02755 | -1.43596 | 33931 ft | 428 kts | 359° |
| 2026-05-05 20:20 | 48.07735 | -1.43955 | 33934 ft | 428 kts | 359° |
| 2026-05-05 20:21 | 48.13694 | -1.44369 | 33934 ft | 428 kts | 359° |
| 2026-05-05 20:21 | 48.19657 | -1.44788 | 33932 ft | 429 kts | 359° |
| 2026-05-05 20:22 | 48.25615 | -1.45214 | 33922 ft | 429 kts | 359° |
| 2026-05-05 20:22 | 48.31536 | -1.45639 | 33932 ft | 429 kts | 359° |
| 2026-05-05 20:23 | 48.37497 | -1.46068 | 33927 ft | 429 kts | 359° |
| 2026-05-05 20:23 | 48.43451 | -1.46498 | 33913 ft | 428 kts | 359° |
| 2026-05-05 20:24 | 48.49406 | -1.46929 | 33929 ft | 428 kts | 359° |
| 2026-05-05 20:24 | 48.55360 | -1.47361 | 33933 ft | 428 kts | 359° |
| 2026-05-05 20:25 | 48.61312 | -1.47794 | 33931 ft | 428 kts | 359° |
| 2026-05-05 20:25 | 48.67272 | -1.48229 | 33928 ft | 428 kts | 359° |
| 2026-05-05 20:26 | 48.73178 | -1.48662 | 33936 ft | 428 kts | 359° |
| 2026-05-05 20:26 | 48.79137 | -1.49101 | 33936 ft | 428 kts | 359° |
| 2026-05-05 20:27 | 48.85091 | -1.49539 | 33934 ft | 428 kts | 359° |
| 2026-05-05 20:27 | 48.91014 | -1.49128 | 33938 ft | 425 kts | 13° |
| 2026-05-05 20:28 | 48.96613 | -1.46333 | 33938 ft | 423 kts | 22° |
| 2026-05-05 20:28 | 49.02143 | -1.43218 | 33933 ft | 424 kts | 22° |
| 2026-05-05 20:29 | 49.07676 | -1.40115 | 33930 ft | 424 kts | 22° |
| 2026-05-05 20:29 | 49.13212 | -1.37004 | 33938 ft | 424 kts | 22° |
| 2026-05-05 20:30 | 49.18756 | -1.33879 | 33937 ft | 425 kts | 22° |
| 2026-05-05 20:30 | 49.24295 | -1.30749 | 33942 ft | 425 kts | 22° |
| 2026-05-05 20:31 | 49.29853 | -1.27599 | 33938 ft | 426 kts | 22° |
| 2026-05-05 20:31 | 49.35378 | -1.24460 | 33939 ft | 426 kts | 22° |
| 2026-05-05 20:32 | 49.40979 | -1.21271 | 33936 ft | 427 kts | 22° |
| 2026-05-05 20:32 | 49.46511 | -1.18114 | 33938 ft | 427 kts | 22° |
| 2026-05-05 20:33 | 49.52117 | -1.14905 | 33943 ft | 435 kts | 22° |
| 2026-05-05 20:33 | 49.57868 | -1.11604 | 33953 ft | 447 kts | 22° |
| 2026-05-05 20:34 | 49.63766 | -1.08211 | 33950 ft | 457 kts | 22° |
| 2026-05-05 20:34 | 49.69786 | -1.04741 | 33945 ft | 466 kts | 22° |
| 2026-05-05 20:35 | 49.75857 | -1.01234 | 33929 ft | 466 kts | 22° |
| 2026-05-05 20:35 | 49.81930 | -0.97717 | 33935 ft | 465 kts | 22° |
| 2026-05-05 20:36 | 49.87986 | -0.94199 | 33936 ft | 465 kts | 22° |
| 2026-05-05 20:36 | 49.94045 | -0.90673 | 33937 ft | 464 kts | 22° |
| 2026-05-05 20:37 | 50.00100 | -0.87351 | 33934 ft | 465 kts | 15° |
| 2026-05-05 20:37 | 50.06518 | -0.86067 | 33947 ft | 466 kts | 6° |
| 2026-05-05 20:38 | 50.13003 | -0.85294 | 33938 ft | 467 kts | 6° |
| 2026-05-05 20:38 | 50.19477 | -0.84434 | 33641 ft | 471 kts | 6° |
| 2026-05-05 20:38 | 50.22751 | -0.83971 | 32994 ft | 470 kts | 6° |
| 2026-05-05 20:39 | 50.26037 | -0.83501 | 32259 ft | 467 kts | 6° |
| 2026-05-05 20:39 | 50.29229 | -0.83044 | 31537 ft | 466 kts | 6° |
| 2026-05-05 20:39 | 50.32466 | -0.82581 | 30760 ft | 466 kts | 6° |
| 2026-05-05 20:39 | 50.35695 | -0.82113 | 29988 ft | 466 kts | 6° |
| 2026-05-05 20:40 | 50.38924 | -0.81637 | 29052 ft | 466 kts | 6° |
| 2026-05-05 20:40 | 50.42147 | -0.81161 | 28165 ft | 465 kts | 6° |
| 2026-05-05 20:40 | 50.45363 | -0.80687 | 27261 ft | 464 kts | 5° |
| 2026-05-05 20:40 | 50.48581 | -0.80214 | 26317 ft | 464 kts | 5° |
| 2026-05-05 20:41 | 50.51789 | -0.79744 | 25524 ft | 461 kts | 5° |
| 2026-05-05 20:41 | 50.54955 | -0.79282 | 24841 ft | 455 kts | 5° |
| 2026-05-05 20:41 | 50.58092 | -0.78822 | 24163 ft | 449 kts | 5° |
| 2026-05-05 20:41 | 50.61179 | -0.78366 | 23492 ft | 444 kts | 5° |
| 2026-05-05 20:42 | 50.64239 | -0.77918 | 22774 ft | 438 kts | 5° |
| 2026-05-05 20:42 | 50.67248 | -0.77483 | 22075 ft | 432 kts | 5° |
| 2026-05-05 20:42 | 50.70226 | -0.77056 | 21394 ft | 427 kts | 5° |
| 2026-05-05 20:42 | 50.73159 | -0.76636 | 20712 ft | 422 kts | 5° |
| 2026-05-05 20:43 | 50.76077 | -0.76217 | 20048 ft | 418 kts | 5° |
| 2026-05-05 20:43 | 50.78917 | -0.75805 | 19403 ft | 414 kts | 5° |
| 2026-05-05 20:43 | 50.81751 | -0.75180 | 18861 ft | 408 kts | 17° |
| 2026-05-05 20:43 | 50.84307 | -0.73563 | 18639 ft | 384 kts | 24° |
| 2026-05-05 20:44 | 50.86712 | -0.71938 | 18260 ft | 367 kts | 23° |
| 2026-05-05 20:44 | 50.89024 | -0.70411 | 17839 ft | 353 kts | 22° |
| 2026-05-05 20:44 | 50.91255 | -0.68955 | 17429 ft | 342 kts | 22° |
| 2026-05-05 20:44 | 50.93432 | -0.67545 | 17028 ft | 333 kts | 22° |
| 2026-05-05 20:45 | 50.97640 | -0.64824 | 16243 ft | 321 kts | 22° |
| 2026-05-05 20:45 | 50.99680 | -0.63501 | 15858 ft | 315 kts | 23° |
| 2026-05-05 20:45 | 51.01650 | -0.61981 | 15488 ft | 316 kts | 28° |
| 2026-05-05 20:46 | 51.03574 | -0.60268 | 15209 ft | 317 kts | 30° |
| 2026-05-05 20:46 | 51.05496 | -0.58501 | 14945 ft | 320 kts | 30° |
| 2026-05-05 20:46 | 51.07417 | -0.56735 | 14672 ft | 318 kts | 29° |
| 2026-05-05 20:46 | 51.09336 | -0.54990 | 14405 ft | 316 kts | 29° |
| 2026-05-05 20:47 | 51.11241 | -0.53268 | 14140 ft | 315 kts | 29° |
| 2026-05-05 20:47 | 51.13138 | -0.51559 | 13879 ft | 315 kts | 29° |
| 2026-05-05 20:47 | 51.15108 | -0.49789 | 13633 ft | 332 kts | 29° |
| 2026-05-05 20:47 | 51.17137 | -0.47968 | 13342 ft | 337 kts | 29° |
| 2026-05-05 20:48 | 51.19174 | -0.46140 | 13038 ft | 333 kts | 29° |
| 2026-05-05 20:48 | 51.21187 | -0.44334 | 12748 ft | 330 kts | 28° |
| 2026-05-05 20:48 | 51.23184 | -0.42542 | 12458 ft | 328 kts | 28° |
| 2026-05-05 20:48 | 51.25165 | -0.40763 | 12177 ft | 327 kts | 28° |
| 2026-05-05 20:49 | 51.27144 | -0.38984 | 12012 ft | 326 kts | 28° |
| 2026-05-05 20:49 | 51.29120 | -0.37206 | 11952 ft | 326 kts | 28° |
| 2026-05-05 20:49 | 51.31072 | -0.35449 | 11967 ft | 326 kts | 28° |
| 2026-05-05 20:49 | 51.33046 | -0.33671 | 11957 ft | 327 kts | 28° |
| 2026-05-05 20:50 | 51.35028 | -0.31883 | 11968 ft | 329 kts | 28° |
| 2026-05-05 20:50 | 51.37021 | -0.30083 | 11971 ft | 329 kts | 28° |
| 2026-05-05 20:50 | 51.39015 | -0.28281 | 11964 ft | 329 kts | 28° |
| 2026-05-05 20:50 | 51.41010 | -0.26476 | 11961 ft | 329 kts | 28° |
| 2026-05-05 20:51 | 51.42988 | -0.24685 | 11966 ft | 329 kts | 28° |
| 2026-05-05 20:51 | 51.44981 | -0.22878 | 11955 ft | 329 kts | 28° |
| 2026-05-05 20:51 | 51.46942 | -0.21097 | 11966 ft | 329 kts | 28° |
| 2026-05-05 20:51 | 51.48921 | -0.19300 | 11955 ft | 328 kts | 28° |
| 2026-05-05 20:52 | 51.50920 | -0.17483 | 11983 ft | 333 kts | 28° |
| 2026-05-05 20:52 | 51.52939 | -0.15645 | 11943 ft | 330 kts | 28° |
| 2026-05-05 20:52 | 51.54904 | -0.13853 | 11523 ft | 325 kts | 28° |
| 2026-05-05 20:52 | 51.56822 | -0.12102 | 11186 ft | 313 kts | 28° |
| 2026-05-05 20:53 | 51.58701 | -0.10384 | 10782 ft | 304 kts | 28° |
| 2026-05-05 20:53 | 51.60515 | -0.08726 | 10317 ft | 297 kts | 28° |
| 2026-05-05 20:53 | 51.62295 | -0.07130 | 9739 ft | 295 kts | 24° |
| 2026-05-05 20:53 | 51.64245 | -0.06326 | 9112 ft | 290 kts | 359° |
| 2026-05-05 20:54 | 51.66164 | -0.06955 | 8543 ft | 286 kts | 336° |
| 2026-05-05 20:54 | 51.67935 | -0.08385 | 7978 ft | 284 kts | 332° |
| 2026-05-05 20:54 | 51.69680 | -0.09941 | 7383 ft | 282 kts | 331° |
| 2026-05-05 20:54 | 51.71366 | -0.11478 | 6835 ft | 281 kts | 331° |
| 2026-05-05 20:55 | 51.72987 | -0.13212 | 6255 ft | 280 kts | 323° |
| 2026-05-05 20:55 | 51.74491 | -0.15200 | 5658 ft | 279 kts | 321° |
| 2026-05-05 20:55 | 51.75965 | -0.17223 | 5081 ft | 278 kts | 321° |
| 2026-05-05 20:55 | 51.77432 | -0.19257 | 4486 ft | 277 kts | 321° |
| 2026-05-05 20:56 | 51.78889 | -0.21300 | 3889 ft | 277 kts | 321° |
| 2026-05-05 20:56 | 51.80397 | -0.23175 | 3408 ft | 268 kts | 337° |
| 2026-05-05 20:56 | 51.82142 | -0.23593 | 3068 ft | 247 kts | 14° |
| 2026-05-05 20:56 | 51.83610 | -0.22397 | 2853 ft | 231 kts | 40° |
| 2026-05-05 20:57 | 51.84706 | -0.20574 | 2594 ft | 223 kts | 56° |
| 2026-05-05 20:57 | 51.85370 | -0.18294 | 2558 ft | 233 kts | 74° |
| 2026-05-05 20:57 | 51.85514 | -0.15618 | 2516 ft | 242 kts | 94° |
| 2026-05-05 20:57 | 51.85029 | -0.13016 | 2485 ft | 245 kts | 117° |
| 2026-05-05 20:58 | 51.84118 | -0.10661 | 2496 ft | 248 kts | 120° |
| 2026-05-05 20:58 | 51.83185 | -0.08313 | 2523 ft | 248 kts | 120° |
| 2026-05-05 20:58 | 51.82249 | -0.05975 | 2520 ft | 248 kts | 119° |
| 2026-05-05 20:58 | 51.81313 | -0.03633 | 2513 ft | 247 kts | 120° |
| 2026-05-05 20:59 | 51.80396 | -0.01347 | 2498 ft | 236 kts | 121° |
| 2026-05-05 20:59 | 51.79525 | 0.00818 | 2461 ft | 225 kts | 120° |
| 2026-05-05 20:59 | 51.78680 | 0.02923 | 2479 ft | 223 kts | 120° |
| 2026-05-05 20:59 | 51.77950 | 0.05082 | 2460 ft | 213 kts | 101° |
| 2026-05-05 21:00 | 51.78104 | 0.07293 | 2477 ft | 196 kts | 57° |
| 2026-05-05 21:00 | 51.78999 | 0.08917 | 2511 ft | 193 kts | 47° |
| 2026-05-05 21:00 | 51.79915 | 0.10502 | 2487 ft | 194 kts | 46° |
| 2026-05-05 21:00 | 51.80901 | 0.12043 | 2245 ft | 199 kts | 44° |
| 2026-05-05 21:01 | 51.81911 | 0.13563 | 1971 ft | 197 kts | 43° |
| 2026-05-05 21:01 | 51.82902 | 0.15054 | 1707 ft | 191 kts | 44° |
| 2026-05-05 21:01 | 51.83835 | 0.16460 | 1445 ft | 175 kts | 43° |
| 2026-05-05 21:01 | 51.84683 | 0.17736 | 1210 ft | 158 kts | 43° |
| 2026-05-05 21:02 | 51.85449 | 0.18888 | 1023 ft | 145 kts | 42° |
| 2026-05-05 21:02 | 51.86168 | 0.19970 | 777 ft | 140 kts | 42° |
| 2026-05-05 21:02 | 51.86881 | 0.21052 | 607 ft | 141 kts | 41° |
| 2026-05-05 21:02 | 51.87601 | 0.22131 | 399 ft | 142 kts | 42° |
| 2026-05-05 21:03 | 51.88289 | 0.23164 | 334 ft | 113 kts | 43° |
| 2026-05-05 21:03 | 51.88707 | 0.23785 | 337 ft | 50 kts | 43° |
| 2026-05-05 21:03 | 51.88854 | 0.24109 | 349 ft | 32 kts | 66° |
| 2026-05-05 21:03 | 51.88904 | 0.24346 | 354 ft | 16 kts | 72° |
| 2026-05-05 21:04 | 51.88914 | 0.24493 | 358 ft | 11 kts | 109° |
| 2026-05-05 21:04 | 51.88929 | 0.24604 | 352 ft | 11 kts | 40° |
| 2026-05-05 21:04 | 51.88966 | 0.24660 | 354 ft | 11 kts | 44° |
| 2026-05-05 21:04 | 51.89019 | 0.24744 | 357 ft | 10 kts | 44° |
| 2026-05-05 21:05 | 51.89088 | 0.24849 | 351 ft | 10 kts | 42° |
| 2026-05-05 21:05 | 51.89145 | 0.24932 | 359 ft | 12 kts | 42° |
| 2026-05-05 21:05 | 51.89206 | 0.25029 | 351 ft | 13 kts | 53° |
| 2026-05-05 21:05 | 51.89257 | 0.25158 | 355 ft | 14 kts | 56° |
| 2026-05-05 21:06 | 51.89298 | 0.25235 | 355 ft | 13 kts | 40° |
| 2026-05-05 21:06 | 51.89371 | 0.25343 | 354 ft | 15 kts | 47° |
| 2026-05-05 21:06 | 51.89418 | 0.25471 | 351 ft | 10 kts | 103° |
| 2026-05-05 21:06 | 51.89369 | 0.25548 | 351 ft | 10 kts | 148° |
| 2026-05-05 21:07 | 51.89309 | 0.25590 | 355 ft | 8 kts | 175° |
| 2026-05-05 21:07 | 51.89266 | 0.25574 | 355 ft | 3 kts | 195° |
| 2026-05-05 21:07 | 51.89262 | 0.25572 | 355 ft | 0 kts | 196° |